Time;durP1;ratioP1;P1;durP2;ratioP2;P2;SDS_P1;SDS_P2;PMS_P1;PMS_P2;Temp;Humidity;BMP_temperature;BMP_pressure;BME280_temperature;BME280_humidity;BME280_pressure;Samples;Min_cycle;Max_cycle;Signal;HPM_P1;HPM_P2
2021/05/25 00:01:43;;;;;;;13.00;11.80;;;12.40;99.90;;;;;;6236904;28;20467;-58
2021/05/25 00:04:45;;;;;;;14.47;13.17;;;12.50;99.90;;;;;;6238786;28;20475;-58
2021/05/25 00:07:49;;;;;;;15.03;12.50;;;12.50;99.90;;;;;;6234801;28;20472;-58
2021/05/25 00:10:52;;;;;;;12.77;11.50;;;12.60;99.90;;;;;;6236557;28;20547;-58
2021/05/25 00:13:54;;;;;;;13.50;12.13;;;12.50;99.90;;;;;;6236620;28;20480;-58
2021/05/25 00:16:57;;;;;;;12.17;10.97;;;12.60;99.90;;;;;;6236157;28;20478;-58
2021/05/25 00:20:00;;;;;;;13.03;11.77;;;12.60;99.90;;;;;;6238641;28;20813;-58
2021/05/25 00:23:04;;;;;;;11.17;10.17;;;12.60;99.90;;;;;;6236317;28;20493;-59
2021/05/25 00:26:06;;;;;;;11.83;10.73;;;12.60;99.90;;;;;;6238429;28;20480;-57
2021/05/25 00:29:09;;;;;;;12.43;11.23;;;12.70;99.90;;;;;;6235709;28;20472;-58
2021/05/25 00:32:12;;;;;;;12.23;11.10;;;12.70;99.90;;;;;;6237573;28;20474;-58
2021/05/25 00:35:15;;;;;;;13.60;11.50;;;12.70;99.90;;;;;;6236532;28;20468;-58
2021/05/25 00:38:19;;;;;;;11.70;10.60;;;12.80;99.90;;;;;;6236655;28;20471;-58
2021/05/25 00:41:24;;;;;;;12.73;11.50;;;12.70;99.90;;;;;;6227922;28;20467;-58
2021/05/25 00:44:27;;;;;;;12.33;11.13;;;12.70;99.90;;;;;;6224696;28;20488;-58
2021/05/25 00:47:30;;;;;;;13.77;12.50;;;12.70;99.90;;;;;;6224865;28;20496;-59
2021/05/25 00:50:33;;;;;;;11.90;10.47;;;12.60;99.90;;;;;;6224721;28;20475;-58
2021/05/25 00:53:37;;;;;;;11.70;10.60;;;12.60;99.90;;;;;;6224719;28;20855;-58
2021/05/25 00:56:40;;;;;;;11.73;10.63;;;12.60;99.90;;;;;;6224688;28;20477;-58
2021/05/25 00:59:42;;;;;;;10.87;9.87;;;12.60;99.90;;;;;;6224785;28;20468;-59
2021/05/25 01:02:46;;;;;;;10.30;9.30;;;12.60;99.90;;;;;;6224763;28;20486;-58
2021/05/25 01:05:49;;;;;;;9.70;8.80;;;12.70;99.90;;;;;;6224503;28;20810;-59
2021/05/25 01:08:53;;;;;;;10.30;9.13;;;12.70;99.90;;;;;;6225275;28;20828;-58
2021/05/25 01:11:55;;;;;;;10.57;9.57;;;12.70;99.90;;;;;;6225317;28;20818;-58
2021/05/25 01:15:02;;;;;;;9.20;7.77;;;12.70;99.90;;;;;;6224987;28;20475;-60
2021/05/25 01:18:06;;;;;;;8.57;7.77;;;12.70;99.90;;;;;;6225368;28;20464;-58
2021/05/25 01:21:11;;;;;;;9.60;8.73;;;12.60;99.90;;;;;;6225347;28;20554;-58
2021/05/25 01:24:15;;;;;;;9.73;8.77;;;12.60;99.90;;;;;;6224989;28;20836;-58
2021/05/25 01:27:18;;;;;;;9.13;8.37;;;12.60;99.90;;;;;;6225293;28;20490;-59
2021/05/25 01:30:23;;;;;;;8.23;7.53;;;12.60;99.90;;;;;;6224861;28;20480;-59
2021/05/25 01:33:29;;;;;;;9.30;8.30;;;12.60;99.90;;;;;;6225504;28;20476;-58
2021/05/25 01:36:32;;;;;;;9.00;8.10;;;12.60;99.90;;;;;;6225056;28;20913;-58
2021/05/25 01:39:35;;;;;;;10.40;9.50;;;12.50;99.90;;;;;;6225532;28;20446;-58
2021/05/25 01:42:39;;;;;;;10.50;9.30;;;12.50;99.90;;;;;;6224947;28;20453;-58
2021/05/25 01:45:42;;;;;;;12.90;11.60;;;12.50;99.90;;;;;;6220086;28;20795;-58
2021/05/25 01:48:48;;;;;;;15.63;12.67;;;12.50;99.90;;;;;;6224876;28;20479;-59
2021/05/25 01:51:52;;;;;;;15.00;13.67;;;12.50;99.90;;;;;;6225309;28;20475;-59
2021/05/25 01:54:59;;;;;;;15.33;13.90;;;12.50;99.90;;;;;;6224550;28;20471;-58
2021/05/25 01:58:04;;;;;;;14.53;13.00;;;12.50;99.90;;;;;;6225149;28;20468;-58
2021/05/25 02:01:09;;;;;;;14.53;13.23;;;12.50;99.90;;;;;;6224976;28;20785;-58
2021/05/25 02:04:12;;;;;;;15.57;14.03;;;12.50;99.90;;;;;;6224715;28;20817;-58
2021/05/25 02:07:18;;;;;;;14.30;13.00;;;12.40;99.90;;;;;;6225054;28;20502;-58
2021/05/25 02:10:27;;;;;;;15.67;14.20;;;12.50;99.90;;;;;;6224472;28;20471;-58
2021/05/25 02:13:31;;;;;;;17.07;14.33;;;12.50;99.90;;;;;;6224804;28;20475;-59
2021/05/25 02:16:34;;;;;;;15.73;14.13;;;12.50;99.90;;;;;;6224500;28;20472;-58
2021/05/25 02:19:37;;;;;;;13.73;12.53;;;12.50;99.90;;;;;;6224585;28;20817;-58
2021/05/25 02:22:40;;;;;;;15.13;13.77;;;12.50;99.90;;;;;;6224311;28;20817;-58
2021/05/25 02:25:44;;;;;;;15.40;13.90;;;12.40;99.90;;;;;;6224869;28;20468;-59
2021/05/25 02:28:47;;;;;;;15.97;13.97;;;12.40;99.90;;;;;;6229099;28;20487;-59
2021/05/25 02:31:49;;;;;;;14.20;12.90;;;12.50;99.90;;;;;;6229137;28;20460;-59
2021/05/25 02:34:52;;;;;;;15.10;13.60;;;12.50;99.90;;;;;;6228810;28;20490;-59
2021/05/25 02:37:55;;;;;;;16.20;14.67;;;12.50;99.90;;;;;;6229069;28;20478;-59
2021/05/25 02:41:00;;;;;;;16.07;14.57;;;12.50;99.90;;;;;;6228692;28;20494;-59
2021/05/25 02:44:03;;;;;;;16.60;14.73;;;12.50;99.90;;;;;;6228864;28;20476;-59
2021/05/25 02:47:06;;;;;;;16.57;14.80;;;12.40;99.90;;;;;;6229135;28;20556;-58
2021/05/25 02:50:10;;;;;;;17.43;15.73;;;12.40;99.90;;;;;;6228742;28;20471;-59
2021/05/25 02:53:13;;;;;;;17.00;15.30;;;12.40;99.90;;;;;;6228903;28;20979;-58
2021/05/25 02:56:17;;;;;;;16.93;15.33;;;12.30;99.90;;;;;;6228426;28;20472;-58
2021/05/25 02:59:20;;;;;;;17.53;15.13;;;12.20;99.90;;;;;;6228669;28;20486;-58
2021/05/25 03:02:22;;;;;;;16.30;14.60;;;12.20;99.90;;;;;;6228490;28;20829;-58
2021/05/25 03:05:26;;;;;;;20.10;16.00;;;12.20;99.90;;;;;;6228471;28;20486;-58
2021/05/25 03:08:29;;;;;;;17.57;15.87;;;12.10;99.90;;;;;;6228266;28;20483;-58
2021/05/25 03:11:33;;;;;;;18.33;16.33;;;12.10;99.90;;;;;;6228423;28;20969;-58
2021/05/25 03:14:36;;;;;;;17.43;15.70;;;12.00;99.90;;;;;;6228084;28;20519;-59
2021/05/25 03:17:39;;;;;;;18.47;16.40;;;12.00;99.90;;;;;;6228258;28;20472;-59
2021/05/25 03:20:43;;;;;;;18.67;15.87;;;12.00;99.90;;;;;;6227706;28;21011;-59
2021/05/25 03:23:46;;;;;;;18.70;16.80;;;12.00;99.90;;;;;;6228181;28;20471;-59
2021/05/25 03:26:50;;;;;;;22.03;15.60;;;12.00;99.90;;;;;;6227999;28;21001;-59
2021/05/25 03:29:53;;;;;;;23.07;18.00;;;12.00;99.90;;;;;;6227670;28;20484;-59
2021/05/25 03:32:57;;;;;;;19.70;17.63;;;11.90;99.90;;;;;;6227794;28;20480;-59
2021/05/25 03:36:00;;;;;;;18.60;16.67;;;11.90;99.90;;;;;;6227373;28;20476;-59
2021/05/25 03:39:04;;;;;;;18.70;16.23;;;12.00;99.90;;;;;;6227415;28;20582;-59
2021/05/25 03:42:08;;;;;;;16.40;14.70;;;11.90;99.90;;;;;;6227350;28;20475;-59
2021/05/25 03:45:10;;;;;;;14.03;12.73;;;12.00;99.90;;;;;;6227430;28;20472;-58
2021/05/25 03:48:13;;;;;;;13.77;12.43;;;12.00;99.90;;;;;;6227152;28;20492;-58
2021/05/25 03:51:16;;;;;;;13.30;11.70;;;12.00;99.90;;;;;;6227365;28;20482;-58
2021/05/25 03:54:22;;;;;;;12.73;11.53;;;12.00;99.90;;;;;;6226764;28;20484;-58
2021/05/25 04:00:43;;;;;;;15.07;11.80;;;12.10;99.90;;;;;;6226855;28;20440;-59
2021/05/25 04:03:46;;;;;;;10.53;9.53;;;12.10;99.90;;;;;;6226891;28;20444;-59
2021/05/25 04:06:48;;;;;;;11.13;10.20;;;12.10;99.90;;;;;;6226891;28;20508;-59
2021/05/25 04:09:51;;;;;;;11.27;10.17;;;12.20;99.90;;;;;;6226982;28;20464;-58
2021/05/25 04:12:55;;;;;;;11.40;10.23;;;12.20;99.90;;;;;;6227044;28;20804;-59
2021/05/25 04:15:58;;;;;;;10.60;9.70;;;12.20;99.90;;;;;;6226986;28;20472;-59
2021/05/25 04:19:01;;;;;;;13.13;12.03;;;12.30;99.90;;;;;;6226993;28;20467;-59
2021/05/25 04:22:03;;;;;;;13.60;12.30;;;12.30;99.90;;;;;;6226342;28;20479;-59
2021/05/25 04:25:08;;;;;;;13.27;11.83;;;12.40;99.90;;;;;;6226805;28;20484;-59
2021/05/25 04:28:12;;;;;;;14.00;11.53;;;12.50;99.90;;;;;;6226477;28;20479;-58
2021/05/25 04:31:14;;;;;;;12.53;11.23;;;12.50;99.90;;;;;;6226748;28;20487;-58
2021/05/25 04:34:17;;;;;;;13.80;12.30;;;12.60;99.90;;;;;;6226273;28;20482;-58
2021/05/25 04:37:20;;;;;;;16.10;14.70;;;12.70;99.90;;;;;;6226601;28;20499;-58
2021/05/25 04:40:22;;;;;;;12.57;11.27;;;12.70;99.90;;;;;;6225985;28;20805;-59
2021/05/25 04:43:26;;;;;;;12.50;11.20;;;12.80;99.90;;;;;;6226417;28;20468;-58
2021/05/25 04:46:30;;;;;;;12.13;10.93;;;12.90;99.90;;;;;;6225821;28;20514;-58
2021/05/25 04:49:33;;;;;;;12.90;11.67;;;12.90;99.90;;;;;;6225361;28;20475;-58
2021/05/25 04:52:36;;;;;;;13.03;11.73;;;12.90;99.90;;;;;;6226066;28;20471;-58
2021/05/25 04:55:40;;;;;;;12.87;11.73;;;12.90;99.90;;;;;;6225519;28;20977;-60
2021/05/25 04:58:44;;;;;;;13.73;12.13;;;12.90;99.90;;;;;;6221713;28;20464;-59
2021/05/25 05:01:46;;;;;;;16.30;13.67;;;12.90;99.90;;;;;;6225680;28;20478;-60
2021/05/25 05:04:49;;;;;;;12.70;11.40;;;12.90;99.90;;;;;;6225638;28;20809;-60
2021/05/25 05:07:53;;;;;;;13.33;12.03;;;12.90;99.90;;;;;;6225515;28;20471;-60
2021/05/25 05:10:55;;;;;;;12.37;11.00;;;12.90;99.90;;;;;;6225870;28;20472;-59
2021/05/25 05:13:59;;;;;;;12.80;11.60;;;12.90;99.90;;;;;;6225147;28;20486;-59
2021/05/25 05:17:02;;;;;;;12.40;11.20;;;12.80;99.90;;;;;;6225639;28;20479;-60
2021/05/25 05:20:06;;;;;;;15.17;11.50;;;12.80;99.90;;;;;;6225327;28;20479;-59
2021/05/25 05:23:09;;;;;;;13.00;11.80;;;12.70;99.90;;;;;;6225583;28;20472;-59
2021/05/25 05:26:12;;;;;;;13.00;11.70;;;12.70;99.90;;;;;;6225096;28;20479;-60
2021/05/25 05:29:16;;;;;;;13.00;11.30;;;12.70;99.90;;;;;;6225256;28;20482;-60
2021/05/25 05:32:19;;;;;;;15.57;11.20;;;12.40;99.90;;;;;;6225528;28;20472;-59
2021/05/25 05:35:22;;;;;;;12.50;11.23;;;12.30;99.90;;;;;;6225055;28;20475;-60
2021/05/25 05:38:24;;;;;;;11.80;10.70;;;12.40;99.90;;;;;;6225137;28;20476;-60
2021/05/25 05:41:27;;;;;;;12.70;11.60;;;12.40;99.90;;;;;;6224662;28;20530;-59
2021/05/25 05:44:31;;;;;;;13.80;12.47;;;12.50;99.90;;;;;;6225000;28;20832;-58
2021/05/25 05:47:33;;;;;;;13.30;12.10;;;12.50;99.90;;;;;;6224845;28;20467;-59
2021/05/25 05:50:36;;;;;;;12.87;11.73;;;12.60;99.90;;;;;;6224822;28;20467;-58
2021/05/25 05:53:39;;;;;;;11.63;10.63;;;12.60;99.90;;;;;;6224606;28;20812;-58
2021/05/25 05:56:42;;;;;;;11.00;10.10;;;12.80;99.90;;;;;;6224992;28;20976;-56
2021/05/25 05:59:51;;;;;;;11.80;10.70;;;12.90;99.90;;;;;;6224943;28;20474;-55
2021/05/25 06:02:53;;;;;;;11.70;10.70;;;12.90;99.90;;;;;;6229775;28;21007;-57
2021/05/25 06:05:56;;;;;;;12.00;10.90;;;13.00;99.90;;;;;;6229207;28;21020;-56
2021/05/25 06:08:59;;;;;;;12.97;11.77;;;13.00;99.90;;;;;;6229866;28;20506;-57
2021/05/25 06:12:01;;;;;;;11.03;9.93;;;13.10;99.90;;;;;;6229348;28;21011;-56
2021/05/25 06:15:07;;;;;;;11.20;10.20;;;13.20;99.90;;;;;;6229445;28;20824;-56
2021/05/25 06:18:09;;;;;;;13.17;11.87;;;13.30;99.90;;;;;;6229444;28;20482;-55
2021/05/25 06:21:12;;;;;;;12.73;11.60;;;13.30;99.90;;;;;;6229262;28;20478;-58
2021/05/25 06:24:15;;;;;;;12.57;11.30;;;13.30;99.90;;;;;;6229206;28;20487;-59
2021/05/25 06:27:18;;;;;;;12.03;10.87;;;13.40;99.90;;;;;;6229020;28;20479;-59
2021/05/25 06:30:22;;;;;;;13.47;12.17;;;13.50;99.90;;;;;;6236162;28;20501;-62
2021/05/25 06:33:25;;;;;;;12.33;11.17;;;13.50;99.90;;;;;;6240238;28;20462;-61
2021/05/25 06:36:27;;;;;;;12.17;11.13;;;13.60;99.90;;;;;;6239280;28;20464;-60
2021/05/25 06:39:30;;;;;;;12.27;11.17;;;13.50;99.90;;;;;;6239289;28;20459;-59
2021/05/25 06:42:33;;;;;;;12.03;10.93;;;13.60;99.90;;;;;;6229224;28;20451;-60
2021/05/25 06:45:37;;;;;;;12.10;10.90;;;13.60;99.90;;;;;;6228278;28;20799;-60
2021/05/25 06:48:40;;;;;;;11.43;10.07;;;13.70;99.90;;;;;;6228885;28;20464;-61
2021/05/25 06:51:43;;;;;;;11.10;10.00;;;13.80;99.90;;;;;;6228558;28;20443;-60
2021/05/25 06:54:46;;;;;;;13.80;12.40;;;13.80;99.90;;;;;;6228284;28;20483;-59
2021/05/25 06:57:49;;;;;;;12.67;11.40;;;13.80;99.90;;;;;;6228755;28;21458;-58
2021/05/25 07:00:53;;;;;;;11.93;10.90;;;13.80;99.90;;;;;;6228363;28;20455;-58
2021/05/25 07:03:55;;;;;;;11.63;10.53;;;13.90;99.90;;;;;;6228363;28;20483;-58
2021/05/25 07:06:58;;;;;;;11.67;10.57;;;13.90;99.90;;;;;;6221306;28;20478;-59
2021/05/25 07:10:01;;;;;;;11.97;10.90;;;13.90;99.90;;;;;;6237373;28;20475;-58
2021/05/25 07:13:04;;;;;;;13.90;12.70;;;14.00;99.90;;;;;;6238324;28;20478;-59
2021/05/25 07:16:08;;;;;;;12.30;10.07;;;14.10;99.90;;;;;;6238302;28;20486;-62
2021/05/25 07:19:10;;;;;;;12.67;11.47;;;14.10;99.90;;;;;;6238137;28;20474;-59
2021/05/25 07:22:13;;;;;;;12.13;11.00;;;14.10;99.90;;;;;;6237536;28;20485;-58
2021/05/25 07:25:16;;;;;;;13.17;11.97;;;14.20;99.90;;;;;;6236353;28;20771;-59
2021/05/25 07:28:19;;;;;;;14.90;11.73;;;14.20;99.90;;;;;;6233535;28;20459;-60
2021/05/25 07:31:23;;;;;;;11.90;10.80;;;14.10;99.90;;;;;;6239875;28;20468;-57
2021/05/25 07:34:25;;;;;;;10.57;9.43;;;14.10;99.90;;;;;;6242669;28;20490;-58
2021/05/25 07:37:28;;;;;;;12.03;11.03;;;14.30;99.90;;;;;;6238984;28;20471;-59
2021/05/25 07:40:31;;;;;;;13.13;11.80;;;14.30;99.90;;;;;;6227293;28;20475;-59
2021/05/25 07:43:34;;;;;;;11.67;10.17;;;14.40;99.90;;;;;;6227678;28;20479;-59
2021/05/25 07:46:38;;;;;;;12.40;11.30;;;14.40;99.90;;;;;;6237646;28;20467;-59
2021/05/25 07:49:41;;;;;;;12.03;10.83;;;14.40;99.90;;;;;;6240056;28;20487;-58
2021/05/25 07:52:45;;;;;;;10.07;9.20;;;14.40;99.90;;;;;;6234305;28;20471;-57
2021/05/25 07:55:50;;;;;;;11.30;10.20;;;14.40;99.90;;;;;;6242350;28;20471;-60
2021/05/25 07:58:54;;;;;;;11.30;10.23;;;14.40;99.90;;;;;;6239711;28;20476;-61
2021/05/25 08:02:00;;;;;;;10.33;9.43;;;14.40;99.90;;;;;;6241079;28;20502;-61
2021/05/25 08:05:03;;;;;;;10.13;9.03;;;14.40;99.90;;;;;;6237940;28;20471;-61
2021/05/25 08:08:08;;;;;;;8.97;8.17;;;14.50;99.90;;;;;;6237321;28;20614;-61
2021/05/25 08:11:12;;;;;;;9.17;8.33;;;14.50;99.90;;;;;;6232853;28;20500;-57
2021/05/25 08:14:15;;;;;;;8.17;7.23;;;14.50;99.90;;;;;;6238819;28;20487;-57
2021/05/25 08:17:22;;;;;;;5.37;4.87;;;14.50;99.90;;;;;;6238962;28;20467;-60
2021/05/25 08:20:25;;;;;;;2.87;2.63;;;14.30;99.90;;;;;;6236729;28;20475;-60
2021/05/25 08:23:48;;;;;;;3.10;2.80;;;14.30;99.90;;;;;;6236104;28;20483;-58
2021/05/25 08:26:51;;;;;;;3.70;3.20;;;14.40;99.90;;;;;;6236332;28;20819;-57
2021/05/25 08:30:15;;;;;;;2.10;1.80;;;14.30;99.90;;;;;;6225812;28;20480;-63
2021/05/25 08:33:19;;;;;;;1.60;1.50;;;14.40;99.90;;;;;;6226344;28;21039;-60
2021/05/25 08:36:23;;;;;;;1.50;1.03;;;14.40;99.90;;;;;;6225491;28;20480;-60
2021/05/25 08:39:26;;;;;;;1.53;1.43;;;14.50;99.90;;;;;;6226085;28;20471;-64
2021/05/25 08:42:28;;;;;;;1.20;1.07;;;14.60;99.90;;;;;;6225304;28;20608;-64
2021/05/25 08:45:31;;;;;;;1.33;0.97;;;14.40;99.90;;;;;;6225720;28;20475;-61
2021/05/25 08:48:41;;;;;;;1.23;1.13;;;14.50;99.90;;;;;;6225787;28;20455;-63
2021/05/25 08:51:43;;;;;;;1.50;1.10;;;14.30;99.90;;;;;;6225784;28;20926;-60
2021/05/25 08:54:46;;;;;;;1.87;1.13;;;14.10;99.90;;;;;;6236701;28;20483;-63
2021/05/25 08:57:49;;;;;;;1.30;1.20;;;14.00;99.90;;;;;;6250192;28;20451;-64
2021/05/25 09:00:54;;;;;;;0.90;0.77;;;14.00;99.90;;;;;;6250081;28;20455;-61
2021/05/25 09:04:00;;;;;;;2.20;1.20;;;14.10;99.90;;;;;;6250039;28;20542;-60
2021/05/25 09:07:03;;;;;;;3.47;0.90;;;14.30;99.90;;;;;;6250072;28;20471;-63
2021/05/25 09:10:08;;;;;;;1.37;1.27;;;14.40;99.90;;;;;;6249599;28;20475;-61
2021/05/25 09:13:13;;;;;;;1.50;1.13;;;14.50;99.90;;;;;;6250192;28;20466;-61
2021/05/25 09:16:15;;;;;;;1.40;1.00;;;14.50;99.90;;;;;;6249681;28;20493;-62
2021/05/25 09:19:19;;;;;;;1.60;1.20;;;14.60;99.90;;;;;;6249644;28;20475;-65
2021/05/25 09:22:39;;;;;;;2.43;1.40;;;14.50;99.90;;;;;;6249489;28;20467;-61
2021/05/25 09:25:54;;;;;;;2.23;1.00;;;14.40;99.90;;;;;;6249601;28;20999;-63
2021/05/25 09:28:59;;;;;;;3.20;1.80;;;14.50;99.90;;;;;;6249005;28;20824;-61
2021/05/25 09:32:09;;;;;;;1.60;1.50;;;14.50;99.90;;;;;;6249585;28;20470;-64
2021/05/25 09:35:14;;;;;;;3.13;0.80;;;14.50;99.90;;;;;;6248775;28;20489;-58
2021/05/25 09:38:18;;;;;;;1.90;1.70;;;14.50;99.90;;;;;;6246174;28;20495;-63
2021/05/25 09:41:20;;;;;;;4.30;1.70;;;14.50;99.90;;;;;;6224461;28;20478;-59
2021/05/25 09:44:23;;;;;;;2.60;1.73;;;14.50;99.90;;;;;;6224578;28;20476;-59
2021/05/25 09:47:34;;;;;;;2.50;1.70;;;14.40;99.90;;;;;;6224503;28;20555;-60
2021/05/25 09:50:40;;;;;;;1.77;1.20;;;14.40;99.90;;;;;;6224726;28;20479;-58
2021/05/25 09:53:47;;;;;;;2.40;1.40;;;14.50;99.90;;;;;;6233605;28;20479;-59
2021/05/25 09:56:58;;;;;;;1.83;1.30;;;14.40;99.40;;;;;;6249128;28;20471;-59
2021/05/25 10:00:08;;;;;;;2.80;1.03;;;14.20;99.90;;;;;;6248409;28;20463;-58
2021/05/25 10:03:19;;;;;;;2.63;1.30;;;14.10;99.90;;;;;;6224462;28;20476;-58
2021/05/25 10:06:25;;;;;;;2.80;2.00;;;14.00;99.90;;;;;;6224091;28;20472;-58
2021/05/25 10:09:28;;;;;;;2.53;2.10;;;13.90;99.90;;;;;;6224480;28;20480;-62
2021/05/25 10:12:32;;;;;;;6.40;1.40;;;13.90;99.90;;;;;;6223731;28;20755;-61
2021/05/25 10:15:34;;;;;;;1.20;1.10;;;13.80;99.90;;;;;;6224674;28;20472;-66
2021/05/25 10:18:50;;;;;;;1.30;1.20;;;13.80;99.90;;;;;;6214524;28;20460;-57
2021/05/25 10:21:54;;;;;;;1.60;1.23;;;13.70;99.90;;;;;;6224758;28;20460;-57
2021/05/25 10:24:58;;;;;;;2.40;1.30;;;13.70;99.90;;;;;;6224013;28;20984;-62
2021/05/25 10:28:07;;;;;;;2.00;1.00;;;13.80;99.90;;;;;;6224289;28;20472;-62
2021/05/25 10:31:26;;;;;;;0.90;0.90;;;13.80;99.90;;;;;;6224359;28;20464;-62
2021/05/25 10:34:32;;;;;;;1.13;0.87;;;14.00;99.90;;;;;;6238500;28;20817;-61
2021/05/25 10:37:36;;;;;;;1.73;1.27;;;14.00;99.90;;;;;;6248717;28;20485;-63
2021/05/25 10:40:41;;;;;;;1.60;0.97;;;14.00;99.90;;;;;;6248681;28;20808;-62
2021/05/25 10:43:47;;;;;;;3.40;2.70;;;14.00;99.90;;;;;;6248430;28;20483;-61
2021/05/25 10:47:18;;;;;;;2.07;0.83;;;13.90;99.90;;;;;;6249159;28;20470;-61
2021/05/25 10:50:26;;;;;;;1.50;1.40;;;13.90;99.90;;;;;;6240020;28;20476;-61
2021/05/25 10:53:30;;;;;;;4.27;1.47;;;13.90;99.90;;;;;;6243326;28;20993;-63
2021/05/25 10:56:37;;;;;;;2.53;0.80;;;14.00;99.90;;;;;;6251104;28;20471;-62
2021/05/25 11:00:00;;;;;;;1.57;0.80;;;14.10;99.90;;;;;;6235275;28;20825;-63
2021/05/25 11:03:05;;;;;;;1.37;1.27;;;14.20;99.90;;;;;;6238159;28;20475;-61
2021/05/25 11:06:08;;;;;;;1.30;0.80;;;14.20;99.90;;;;;;6239510;28;20474;-64
2021/05/25 11:09:22;;;;;;;1.67;1.10;;;14.30;99.90;;;;;;6241391;28;20460;-66
2021/05/25 11:12:24;;;;;;;0.97;0.80;;;14.30;99.90;;;;;;6250623;28;20479;-66
2021/05/25 11:15:28;;;;;;;1.10;0.90;;;14.30;99.90;;;;;;6247707;28;20471;-60
2021/05/25 11:18:35;;;;;;;2.00;0.87;;;14.40;99.90;;;;;;6238966;28;20467;-59
2021/05/25 11:25:07;;;;;;;0.80;0.70;;;14.20;99.90;;;;;;6228343;28;20475;-68
2021/05/25 11:28:10;;;;;;;1.90;1.23;;;14.20;99.90;;;;;;6252338;28;20473;-61
2021/05/25 11:31:36;;;;;;;1.17;1.10;;;14.10;99.90;;;;;;6252524;28;20486;-58
2021/05/25 11:34:39;;;;;;;1.37;1.10;;;14.10;99.90;;;;;;6252059;28;20479;-60
2021/05/25 11:37:44;;;;;;;1.20;0.80;;;14.20;99.90;;;;;;6252300;28;20482;-60
2021/05/25 11:40:47;;;;;;;2.40;1.27;;;14.20;99.90;;;;;;6252291;28;20471;-59
2021/05/25 11:44:02;;;;;;;1.10;1.00;;;14.00;99.90;;;;;;6251789;28;20489;-61
2021/05/25 11:47:08;;;;;;;0.90;0.80;;;13.90;99.90;;;;;;6251512;28;20467;-60
2021/05/25 11:50:12;;;;;;;0.77;0.77;;;13.90;99.90;;;;;;6251631;28;20475;-57
2021/05/25 11:53:35;;;;;;;1.93;0.80;;;13.80;99.90;;;;;;6252004;28;20976;-56
2021/05/25 11:56:39;;;;;;;0.70;0.67;;;13.60;99.60;;;;;;6251260;28;20501;-57
2021/05/25 11:59:44;;;;;;;0.80;0.80;;;13.60;99.20;;;;;;6251619;28;20542;-57
2021/05/25 12:02:49;;;;;;;0.80;0.67;;;13.40;98.90;;;;;;6229281;28;20487;-57
2021/05/25 12:05:52;;;;;;;0.70;0.60;;;13.20;99.20;;;;;;6226826;28;20511;-57
2021/05/25 12:09:06;;;;;;;0.60;0.60;;;12.90;98.90;;;;;;6227032;28;20472;-56
2021/05/25 12:12:12;;;;;;;0.60;0.57;;;12.80;99.50;;;;;;6226607;28;20831;-57
2021/05/25 12:15:18;;;;;;;1.53;0.93;;;12.70;99.60;;;;;;6226817;28;20828;-56
2021/05/25 12:18:24;;;;;;;1.57;1.47;;;12.60;99.40;;;;;;6226643;28;20492;-58
2021/05/25 12:21:30;;;;;;;1.00;0.90;;;12.30;99.80;;;;;;6226593;28;20499;-58
2021/05/25 12:24:34;;;;;;;0.90;0.80;;;12.30;99.90;;;;;;6238241;28;20474;-57
2021/05/25 12:27:39;;;;;;;1.80;0.93;;;12.30;99.90;;;;;;6250578;28;20443;-59
2021/05/25 12:30:44;;;;;;;1.03;0.83;;;12.20;99.90;;;;;;6250704;28;20483;-56
2021/05/25 12:33:49;;;;;;;1.83;0.93;;;12.40;99.90;;;;;;6251233;28;20474;-57
2021/05/25 12:36:58;;;;;;;1.47;0.90;;;12.40;99.90;;;;;;6245485;28;20479;-58
2021/05/25 12:40:03;;;;;;;0.87;0.73;;;12.40;99.90;;;;;;6225999;28;20472;-57
2021/05/25 12:43:19;;;;;;;1.67;0.83;;;12.50;99.90;;;;;;6225738;28;20476;-57
2021/05/25 12:46:22;;;;;;;1.00;0.90;;;12.40;99.90;;;;;;6250033;28;20960;-58
2021/05/25 12:49:30;;;;;;;1.20;1.10;;;12.40;99.90;;;;;;6250217;28;20512;-62
2021/05/25 12:52:33;;;;;;;1.00;1.00;;;12.20;99.90;;;;;;6240046;28;20471;-62
2021/05/25 12:55:40;;;;;;;1.80;0.90;;;12.10;99.90;;;;;;6232985;28;20476;-62
2021/05/25 12:58:45;;;;;;;1.20;0.90;;;12.20;99.90;;;;;;6235615;28;20479;-62
2021/05/25 13:01:48;;;;;;;2.20;0.83;;;12.10;99.90;;;;;;6242759;28;20474;-62
2021/05/25 13:05:04;;;;;;;0.67;0.67;;;12.10;99.90;;;;;;6237462;28;20486;-61
2021/05/25 13:08:08;;;;;;;1.00;0.87;;;12.00;99.90;;;;;;6236817;28;20483;-62
2021/05/25 13:11:11;;;;;;;0.70;0.70;;;11.90;99.90;;;;;;6236021;28;20470;-61
2021/05/25 13:14:19;;;;;;;2.30;0.97;;;11.70;99.90;;;;;;6237490;28;20486;-62
2021/05/25 13:17:21;;;;;;;0.70;0.70;;;11.60;99.90;;;;;;6236358;28;20460;-61
2021/05/25 13:20:28;;;;;;;0.90;0.83;;;11.60;99.90;;;;;;6237171;28;20470;-61
2021/05/25 13:23:33;;;;;;;2.63;0.83;;;11.60;99.90;;;;;;6236381;28;20464;-63
2021/05/25 13:26:38;;;;;;;1.10;1.00;;;11.70;99.90;;;;;;6235926;28;20967;-62
2021/05/25 13:29:42;;;;;;;1.23;0.60;;;11.80;99.90;;;;;;6238923;28;20482;-62
2021/05/25 13:32:47;;;;;;;1.10;1.00;;;11.80;99.90;;;;;;6230354;28;20460;-62
2021/05/25 13:35:50;;;;;;;1.00;0.90;;;11.80;99.90;;;;;;6236574;28;20478;-62
2021/05/25 13:38:53;;;;;;;1.10;1.00;;;11.70;99.90;;;;;;6238619;28;20808;-62
2021/05/25 13:41:56;;;;;;;1.27;0.80;;;11.60;99.90;;;;;;6233365;28;20467;-62
2021/05/25 13:44:59;;;;;;;1.40;1.30;;;11.50;99.90;;;;;;6235948;28;20467;-63
2021/05/25 13:48:04;;;;;;;1.30;1.07;;;11.50;99.90;;;;;;6235139;28;20479;-63
2021/05/25 13:51:07;;;;;;;2.43;1.10;;;11.60;99.90;;;;;;6234637;28;20474;-61
2021/05/25 13:54:10;;;;;;;1.47;1.20;;;11.70;99.90;;;;;;6238011;28;20493;-62
2021/05/25 13:57:17;;;;;;;1.57;1.20;;;11.80;99.90;;;;;;6225971;28;20479;-60
2021/05/25 14:03:45;;;;;;;1.90;1.60;;;11.90;99.90;;;;;;6243520;28;20463;-60
2021/05/25 14:06:47;;;;;;;2.37;2.17;;;11.80;99.90;;;;;;6246828;28;20443;-60
2021/05/25 14:09:50;;;;;;;1.90;1.27;;;11.80;99.90;;;;;;6246793;28;20521;-56
2021/05/25 14:12:53;;;;;;;5.00;1.20;;;11.90;99.90;;;;;;6246364;28;20463;-56
2021/05/25 14:15:58;;;;;;;0.90;0.90;;;12.10;99.90;;;;;;6247238;28;20471;-56
2021/05/25 14:19:01;;;;;;;4.23;1.00;;;12.20;99.90;;;;;;6247121;28;20495;-57
2021/05/25 14:22:04;;;;;;;1.30;0.90;;;12.40;99.90;;;;;;6249915;28;20478;-56
2021/05/25 14:25:08;;;;;;;2.40;1.53;;;12.60;99.90;;;;;;6253511;28;20470;-59
2021/05/25 14:28:11;;;;;;;1.53;1.43;;;12.70;99.90;;;;;;6253576;28;20466;-58
2021/05/25 14:31:15;;;;;;;1.40;1.30;;;12.60;99.90;;;;;;6253181;28;20848;-57
2021/05/25 14:34:18;;;;;;;2.70;1.77;;;12.50;99.90;;;;;;6248235;28;20886;-56
2021/05/25 14:37:21;;;;;;;2.20;1.30;;;12.40;99.90;;;;;;6252186;28;20463;-57
2021/05/25 14:40:24;;;;;;;2.77;2.10;;;12.40;99.90;;;;;;6251547;28;20810;-57
2021/05/25 14:43:27;;;;;;;3.23;1.70;;;12.40;99.90;;;;;;6252630;28;20486;-57
2021/05/25 14:46:31;;;;;;;3.03;2.73;;;12.40;99.90;;;;;;6252056;28;20960;-57
2021/05/25 14:49:33;;;;;;;3.00;2.70;;;12.40;99.90;;;;;;6253032;28;20488;-66
2021/05/25 14:52:36;;;;;;;1.30;1.20;;;12.40;99.90;;;;;;6252633;28;20478;-61
2021/05/25 14:55:41;;;;;;;3.13;2.20;;;12.30;99.90;;;;;;6252599;28;20489;-57
2021/05/25 14:58:47;;;;;;;2.13;1.53;;;12.20;99.90;;;;;;6253069;28;20488;-66
2021/05/25 15:01:54;;;;;;;2.50;1.80;;;11.90;99.90;;;;;;6252967;28;20467;-66
2021/05/25 15:05:03;;;;;;;2.20;1.57;;;11.80;99.90;;;;;;6253024;28;20475;-67
2021/05/25 15:08:09;;;;;;;2.97;1.67;;;11.80;99.90;;;;;;6252547;28;20483;-66
2021/05/25 15:11:12;;;;;;;2.40;1.50;;;11.80;99.90;;;;;;6252565;28;20979;-57
2021/05/25 15:14:15;;;;;;;2.30;1.50;;;11.70;99.90;;;;;;6237491;28;20479;-56
2021/05/25 15:17:19;;;;;;;1.97;1.27;;;11.80;99.90;;;;;;6236768;28;20468;-57
2021/05/25 15:20:23;;;;;;;3.00;2.73;;;11.80;99.90;;;;;;6243254;28;20467;-57
2021/05/25 15:23:30;;;;;;;4.07;2.10;;;11.90;99.90;;;;;;6252746;28;20520;-56
2021/05/25 15:26:33;;;;;;;8.43;6.10;;;11.80;99.90;;;;;;6252028;28;20968;-57
2021/05/25 15:29:36;;;;;;;6.10;3.33;;;11.80;99.90;;;;;;6252403;28;20852;-58
2021/05/25 15:32:40;;;;;;;2.27;2.07;;;11.80;99.90;;;;;;6251009;28;20791;-57
2021/05/25 15:35:44;;;;;;;2.23;2.07;;;11.70;99.90;;;;;;6251699;28;20490;-57
2021/05/25 15:38:47;;;;;;;1.80;1.60;;;11.60;99.90;;;;;;6236854;28;20915;-58
2021/05/25 15:41:50;;;;;;;1.80;1.60;;;11.60;99.90;;;;;;6236327;28;20475;-57
2021/05/25 15:44:53;;;;;;;1.97;1.37;;;11.50;99.90;;;;;;6234634;28;20483;-57
2021/05/25 15:47:59;;;;;;;1.57;1.47;;;11.50;99.90;;;;;;6227087;28;20476;-57
2021/05/25 15:51:02;;;;;;;1.83;1.53;;;11.40;99.90;;;;;;6227481;28;20472;-57
2021/05/25 15:54:06;;;;;;;2.90;1.60;;;11.30;99.90;;;;;;6238956;28;20467;-57
2021/05/25 15:57:09;;;;;;;2.70;1.20;;;11.30;99.90;;;;;;6251708;28;20482;-58
2021/05/25 16:00:13;;;;;;;1.80;1.70;;;11.20;99.90;;;;;;6247274;28;20537;-55